createdAt,value
2022-08-26T00:00:57.386Z,16.83
2022-08-26T00:03:26.419Z,26.92
2022-08-26T00:05:55.925Z,16.88
2022-08-26T00:08:24.317Z,21.20
2022-08-26T00:10:53.929Z,17.95
2022-08-26T00:13:22.249Z,22.83
2022-08-26T00:15:51.308Z,19.58
2022-08-26T00:18:22.175Z,22.98
2022-08-26T00:20:52.208Z,23.05
2022-08-26T00:23:20.552Z,25.15
2022-08-26T00:25:54.465Z,22.20
2022-08-26T00:28:25.856Z,30.00
2022-08-26T00:30:54.204Z,22.20
2022-08-26T00:33:23.005Z,20.35
2022-08-26T00:35:51.677Z,24.02
2022-08-26T00:38:21.249Z,20.33
2022-08-26T00:40:56.143Z,24.88
2022-08-26T00:43:26.400Z,21.08
2022-08-26T00:46:02.296Z,17.63
2022-08-26T00:48:34.839Z,19.58
2022-08-26T00:51:09.911Z,21.00
2022-08-26T00:53:46.304Z,25.75
2022-08-26T00:56:30.114Z,21.98
2022-08-26T00:59:04.801Z,22.77
2022-08-26T01:01:33.232Z,29.52
2022-08-26T01:04:02.739Z,24.15
2022-08-26T01:06:31.361Z,20.38
2022-08-26T01:08:59.516Z,20.45
2022-08-26T01:11:29.256Z,27.45
2022-08-26T01:14:02.063Z,21.35
2022-08-26T01:16:33.199Z,21.30
2022-08-26T01:19:14.156Z,18.65
2022-08-26T01:21:50.904Z,24.42
2022-08-26T01:24:20.873Z,20.58
2022-08-26T01:26:50.099Z,23.95
2022-08-26T01:29:20.871Z,26.33
2022-08-26T01:31:59.123Z,22.98
2022-08-26T01:34:32.299Z,20.75
2022-08-26T01:37:14.166Z,21.95
2022-08-26T01:39:49.373Z,20.50
2022-08-26T01:42:21.541Z,23.63
2022-08-26T01:44:58.605Z,21.48
2022-08-26T01:47:31.822Z,23.08
2022-08-26T01:50:04.414Z,23.85
2022-08-26T01:52:36.812Z,22.95
2022-08-26T01:55:09.169Z,20.95
2022-08-26T01:57:38.267Z,19.30
2022-08-26T02:00:10.822Z,24.48
2022-08-26T02:02:39.107Z,21.17
2022-08-26T02:05:12.839Z,20.52
2022-08-26T02:07:42.439Z,20.05
2022-08-26T02:10:13.960Z,19.45
2022-08-26T02:12:43.156Z,17.75
2022-08-26T02:15:13.882Z,22.02
2022-08-26T02:17:47.656Z,20.95
2022-08-26T02:20:21.550Z,18.77
2022-08-26T02:22:49.942Z,21.17
2022-08-26T02:25:29.011Z,21.65
2022-08-26T02:27:57.676Z,23.83
2022-08-26T02:30:29.917Z,27.63
2022-08-26T02:33:00.194Z,23.30
2022-08-26T02:35:28.411Z,19.70
2022-08-26T02:38:00.282Z,18.70
2022-08-26T02:40:34.649Z,20.73
2022-08-26T02:43:04.661Z,21.83
2022-08-26T02:45:38.063Z,21.92
2022-08-26T02:48:13.922Z,18.92
2022-08-26T02:50:42.823Z,23.00
2022-08-26T02:53:13.216Z,20.50
2022-08-26T02:55:43.296Z,26.70
2022-08-26T02:58:12.277Z,20.83
2022-08-26T03:00:52.836Z,24.15
2022-08-26T03:03:23.743Z,22.40
2022-08-26T03:05:52.176Z,22.83
2022-08-26T03:08:22.168Z,22.67
2022-08-26T03:10:51.797Z,22.38
2022-08-26T03:13:19.941Z,25.10
2022-08-26T03:15:48.085Z,19.92
2022-08-26T03:18:16.437Z,26.73
2022-08-26T03:20:45.503Z,19.85
2022-08-26T03:23:13.673Z,24.92
2022-08-26T03:25:42.327Z,21.90
2022-08-26T03:28:12.090Z,20.70
2022-08-26T03:30:45.322Z,24.17
2022-08-26T03:33:15.272Z,20.77
2022-08-26T03:35:47.349Z,22.40
2022-08-26T03:38:16.199Z,21.00
2022-08-26T03:40:45.486Z,21.25
2022-08-26T03:43:17.474Z,19.90
2022-08-26T03:45:46.450Z,19.33
2022-08-26T03:48:15.344Z,23.55
2022-08-26T03:50:43.830Z,25.25
2022-08-26T03:53:12.767Z,21.13
2022-08-26T03:55:43.185Z,20.58
2022-08-26T03:58:11.893Z,22.92
2022-08-26T04:00:41.449Z,22.25
2022-08-26T04:03:14.652Z,23.55
2022-08-26T04:05:46.218Z,26.35
2022-08-26T04:08:14.859Z,24.45
2022-08-26T04:10:43.457Z,22.98
2022-08-26T04:13:12.249Z,24.70
2022-08-26T04:15:41.939Z,29.58
2022-08-26T04:18:10.211Z,27.00
2022-08-26T04:20:39.032Z,21.52
2022-08-26T04:23:07.303Z,25.55
2022-08-26T04:25:35.861Z,21.45
2022-08-26T04:28:04.637Z,21.70
2022-08-26T04:30:33.317Z,24.70
2022-08-26T04:33:04.421Z,28.08
2022-08-26T04:35:41.029Z,26.42
2022-08-26T04:38:12.239Z,23.02
2022-08-26T04:40:46.728Z,24.08
2022-08-26T04:43:15.340Z,23.83
2022-08-26T04:45:43.990Z,18.52
2022-08-26T04:48:13.492Z,23.20
2022-08-26T04:50:45.098Z,25.30
2022-08-26T04:53:17.644Z,22.83
2022-08-26T04:55:45.878Z,26.27
2022-08-26T04:58:17.133Z,24.25
2022-08-26T05:00:46.282Z,27.85
2022-08-26T05:03:17.192Z,23.33
2022-08-26T05:05:49.811Z,28.20
2022-08-26T05:08:21.057Z,25.70
2022-08-26T05:10:54.599Z,23.77
2022-08-26T05:13:27.117Z,22.95
2022-08-26T05:16:01.313Z,23.55
2022-08-26T05:18:31.145Z,24.85
2022-08-26T05:20:59.256Z,24.88
2022-08-26T05:23:27.731Z,21.35
2022-08-26T05:25:59.128Z,25.13
2022-08-26T05:28:30.486Z,25.88
2022-08-26T05:30:58.745Z,25.13
2022-08-26T05:33:26.902Z,20.60
2022-08-26T05:35:56.407Z,24.55
2022-08-26T05:38:25.057Z,20.67
2022-08-26T05:40:58.615Z,24.08
2022-08-26T05:43:27.611Z,21.52
2022-08-26T05:45:56.063Z,20.77
2022-08-26T05:48:24.860Z,21.67
2022-08-26T05:50:54.447Z,24.40
2022-08-26T05:53:26.248Z,18.42
2022-08-26T05:55:56.188Z,21.17
2022-08-26T05:58:25.119Z,24.30
2022-08-26T06:01:01.223Z,24.83
2022-08-26T06:03:31.582Z,25.35
2022-08-26T06:06:00.197Z,25.33
2022-08-26T06:08:29.909Z,22.90
2022-08-26T06:11:02.834Z,22.25
2022-08-26T06:13:31.957Z,26.38
2022-08-26T06:16:04.237Z,25.02
2022-08-26T06:18:36.462Z,26.38
2022-08-26T06:21:16.012Z,23.40
2022-08-26T06:24:18.827Z,24.23
2022-08-26T06:26:51.397Z,21.70
2022-08-26T06:29:24.028Z,25.58
2022-08-26T06:31:53.886Z,23.15
2022-08-26T06:34:22.082Z,18.90
2022-08-26T06:36:53.165Z,26.08
2022-08-26T06:39:23.129Z,22.83
2022-08-26T06:41:51.413Z,24.05
2022-08-26T06:44:21.027Z,30.58
2022-08-26T06:46:50.398Z,29.33
2022-08-26T06:49:26.758Z,30.85
2022-08-26T06:51:58.085Z,21.48
2022-08-26T06:54:30.185Z,20.33
2022-08-26T06:56:58.858Z,24.80
2022-08-26T06:59:27.603Z,18.40
2022-08-26T07:01:56.220Z,25.38
2022-08-26T07:04:24.976Z,24.83
2022-08-26T07:06:56.984Z,21.08
2022-08-26T07:09:33.087Z,24.80
2022-08-26T07:12:01.910Z,21.13
2022-08-26T07:14:31.744Z,23.60
2022-08-26T07:17:01.309Z,22.92
2022-08-26T07:19:30.919Z,24.50
2022-08-26T07:22:01.872Z,31.35
2022-08-26T07:24:32.243Z,24.17
2022-08-26T07:27:02.951Z,27.65
2022-08-26T07:29:34.332Z,23.05
2022-08-26T07:32:03.942Z,23.40
2022-08-26T07:34:33.646Z,22.85
2022-08-26T07:37:02.238Z,23.88
2022-08-26T07:39:33.645Z,19.95
2022-08-26T07:42:07.737Z,25.45
2022-08-26T07:44:37.500Z,24.38
2022-08-26T07:47:24.041Z,25.73
2022-08-26T07:49:54.587Z,25.83
2022-08-26T07:52:26.695Z,26.40
2022-08-26T07:54:58.066Z,21.45
2022-08-26T07:57:26.917Z,23.17
2022-08-26T07:59:55.954Z,21.27
2022-08-26T08:02:26.486Z,21.30
2022-08-26T08:04:56.713Z,23.25
2022-08-26T08:07:38.635Z,23.48
2022-08-26T08:10:20.831Z,25.17
2022-08-26T08:12:50.845Z,22.63
2022-08-26T08:15:24.135Z,22.83
2022-08-26T08:17:53.069Z,25.10
2022-08-26T08:20:23.118Z,20.35
2022-08-26T08:22:53.492Z,22.80
2022-08-26T08:25:24.898Z,20.67
2022-08-26T08:27:53.059Z,20.25
2022-08-26T08:30:24.333Z,18.83
2022-08-26T08:32:53.629Z,22.40
2022-08-26T08:35:26.224Z,21.95
2022-08-26T08:37:56.463Z,20.42
2022-08-26T08:40:28.209Z,25.00
2022-08-26T08:43:04.613Z,22.95
2022-08-26T08:45:39.793Z,21.70
2022-08-26T08:48:20.785Z,25.00
2022-08-26T08:51:03.379Z,20.60
2022-08-26T08:53:37.444Z,20.05
2022-08-26T08:56:23.635Z,25.25
2022-08-26T08:59:14.147Z,27.10
2022-08-26T09:02:03.284Z,24.60
2022-08-26T09:05:03.314Z,23.30
2022-08-26T09:07:38.205Z,22.85
2022-08-26T09:10:35.115Z,22.10
2022-08-26T09:13:09.284Z,20.77
2022-08-26T09:15:56.783Z,20.45
2022-08-26T09:18:46.193Z,22.90
2022-08-26T09:21:18.189Z,21.70
2022-08-26T09:23:49.632Z,22.33
2022-08-26T09:26:24.727Z,19.23
2022-08-26T09:29:01.681Z,19.52
2022-08-26T09:31:34.123Z,19.10
2022-08-26T09:34:17.433Z,19.70
2022-08-26T09:36:50.235Z,17.80
2022-08-26T09:39:34.635Z,16.95
2022-08-26T09:42:11.797Z,19.02
2022-08-26T09:45:00.151Z,16.30
2022-08-26T09:47:32.923Z,19.85
2022-08-26T09:50:09.561Z,19.33
2022-08-26T09:52:40.356Z,20.27
2022-08-26T09:55:20.996Z,21.27
2022-08-26T09:57:52.210Z,22.25
2022-08-26T10:00:34.002Z,23.00
2022-08-26T10:03:04.876Z,19.08
2022-08-26T10:05:48.475Z,20.63
2022-08-26T10:08:24.878Z,21.90
2022-08-26T10:10:56.184Z,19.50
2022-08-26T10:13:33.037Z,17.75
2022-08-26T10:16:15.692Z,23.45
2022-08-26T10:18:55.724Z,22.60
2022-08-26T10:21:36.600Z,21.33
2022-08-26T10:24:08.135Z,19.38
2022-08-26T10:26:46.320Z,26.38
2022-08-26T10:29:21.405Z,22.65
2022-08-26T10:32:03.408Z,21.67
2022-08-26T10:34:33.218Z,20.05
2022-08-26T10:37:15.559Z,21.48
2022-08-26T10:39:57.109Z,22.13
2022-08-26T10:42:35.159Z,17.25
2022-08-26T10:45:12.025Z,15.80
2022-08-26T10:47:51.355Z,18.58
2022-08-26T10:50:23.781Z,19.85
2022-08-26T10:53:03.090Z,20.92
2022-08-26T10:55:44.271Z,12.88
2022-08-26T10:58:32.939Z,16.35
2022-08-26T11:01:35.799Z,20.75
2022-08-26T11:04:28.462Z,17.75
2022-08-26T11:07:36.230Z,21.27
2022-08-26T11:10:32.019Z,20.00
2022-08-26T11:13:03.537Z,15.73
2022-08-26T11:16:01.074Z,14.70
2022-08-26T11:18:48.717Z,20.15
2022-08-26T11:25:04.017Z,18.13
2022-08-26T11:28:07.432Z,19.15
2022-08-26T11:30:56.859Z,16.15
2022-08-26T11:33:58.020Z,19.40
2022-08-26T11:36:45.341Z,15.85
2022-08-26T11:39:23.033Z,16.15
2022-08-26T11:41:55.679Z,15.00
2022-08-26T11:44:30.084Z,18.40
2022-08-26T11:47:01.589Z,14.48
2022-08-26T11:49:33.365Z,14.38
2022-08-26T11:52:21.574Z,16.63
2022-08-26T11:55:04.668Z,13.25
2022-08-26T11:57:43.146Z,15.77
2022-08-26T12:00:22.549Z,15.75
2022-08-26T12:02:52.631Z,14.73
2022-08-26T12:05:31.100Z,14.13
2022-08-26T12:08:08.176Z,20.75
2022-08-26T12:10:38.647Z,19.20
2022-08-26T12:13:09.781Z,9.52
2022-08-26T12:15:38.512Z,13.10
2022-08-26T12:18:29.051Z,9.10
2022-08-26T12:21:02.687Z,7.63
2022-08-26T12:23:43.351Z,9.70
2022-08-26T12:26:24.254Z,12.25
2022-08-26T12:29:00.005Z,17.55
2022-08-26T12:31:33.045Z,15.35
2022-08-26T12:34:05.948Z,13.77
2022-08-26T12:36:40.793Z,15.80
2022-08-26T12:39:12.213Z,10.73
2022-08-26T12:41:49.587Z,13.55
2022-08-26T12:44:53.915Z,14.93
2022-08-26T12:47:32.774Z,15.82
2022-08-26T12:50:19.831Z,12.45
2022-08-26T12:53:00.021Z,22.80
2022-08-26T12:55:39.929Z,15.13
2022-08-26T12:58:21.283Z,23.38
2022-08-26T13:00:52.916Z,20.92
2022-08-26T13:03:43.209Z,17.92
2022-08-26T13:06:29.794Z,19.73
2022-08-26T13:09:00.699Z,16.13
2022-08-26T13:11:32.432Z,19.08
2022-08-26T13:14:06.799Z,15.07
2022-08-26T13:16:38.166Z,15.98
2022-08-26T13:19:10.404Z,16.38
2022-08-26T13:21:47.758Z,18.50
2022-08-26T13:24:19.408Z,17.55
2022-08-26T13:26:50.367Z,16.98
2022-08-26T13:29:20.282Z,17.95
2022-08-26T13:31:51.464Z,17.23
2022-08-26T13:34:23.930Z,17.95
2022-08-26T13:36:55.199Z,18.33
2022-08-26T13:39:23.855Z,19.23
2022-08-26T13:41:52.994Z,18.52
2022-08-26T13:44:21.655Z,13.95
2022-08-26T13:46:51.165Z,17.33
2022-08-26T13:49:19.277Z,21.60
2022-08-26T13:51:47.474Z,17.40
2022-08-26T13:54:15.668Z,20.58
2022-08-26T13:56:43.954Z,16.63
2022-08-26T13:59:12.114Z,16.27
2022-08-26T14:01:40.260Z,18.85
2022-08-26T14:04:09.749Z,20.70
2022-08-26T14:06:37.872Z,14.98
2022-08-26T14:09:06.501Z,18.17
2022-08-26T14:11:50.874Z,18.88
2022-08-26T14:14:23.073Z,18.25
2022-08-26T14:16:59.651Z,21.02
2022-08-26T14:19:31.025Z,17.50
2022-08-26T14:22:00.769Z,21.15
2022-08-26T14:24:30.166Z,17.23
2022-08-26T14:26:58.620Z,21.00
2022-08-26T14:29:26.853Z,14.88
2022-08-26T14:31:58.674Z,13.07
2022-08-26T14:34:27.012Z,14.45
2022-08-26T14:36:56.524Z,16.95
2022-08-26T14:39:24.836Z,14.60
2022-08-26T14:41:57.382Z,14.52
2022-08-26T14:44:30.521Z,11.32
2022-08-26T14:47:02.041Z,13.65
2022-08-26T14:49:31.303Z,12.05
2022-08-26T14:52:01.272Z,13.65
2022-08-26T14:54:29.484Z,10.77
2022-08-26T14:57:03.461Z,16.52
2022-08-26T14:59:36.393Z,16.52
2022-08-26T15:02:06.278Z,13.02
2022-08-26T15:04:35.432Z,12.35
2022-08-26T15:07:05.935Z,12.48
2022-08-26T15:09:37.526Z,11.77
2022-08-26T15:12:06.642Z,17.83
2022-08-26T15:14:34.831Z,16.40
2022-08-26T15:17:03.007Z,13.93
2022-08-26T15:19:31.163Z,15.18
2022-08-26T15:21:59.325Z,10.45
2022-08-26T15:24:29.632Z,10.88
2022-08-26T15:26:58.323Z,10.98
2022-08-26T15:29:26.774Z,13.68
2022-08-26T15:31:55.281Z,16.27
2022-08-26T15:34:25.718Z,12.23
2022-08-26T15:36:54.056Z,12.55
2022-08-26T15:39:22.471Z,9.10
2022-08-26T15:41:52.105Z,12.13
2022-08-26T15:44:20.679Z,13.35
2022-08-26T15:46:52.520Z,8.93
2022-08-26T15:49:24.550Z,13.05
2022-08-26T15:51:52.716Z,8.27
2022-08-26T15:54:24.306Z,6.63
2022-08-26T15:56:53.869Z,7.43
2022-08-26T15:59:23.523Z,12.77
2022-08-26T16:01:51.997Z,7.93
2022-08-26T16:04:20.394Z,11.00
2022-08-26T16:06:52.106Z,9.23
2022-08-26T16:09:24.285Z,8.60
2022-08-26T16:11:54.514Z,11.70
2022-08-26T16:14:23.596Z,9.20
2022-08-26T16:16:52.114Z,7.35
2022-08-26T16:19:21.372Z,11.77
2022-08-26T16:21:50.775Z,14.95
2022-08-26T16:24:24.872Z,8.25
2022-08-26T16:26:55.897Z,9.07
2022-08-26T16:29:24.511Z,7.72
2022-08-26T16:31:53.791Z,9.02
2022-08-26T16:34:22.847Z,8.63
2022-08-26T16:36:51.230Z,9.60
2022-08-26T16:39:19.354Z,11.60
2022-08-26T16:41:47.451Z,8.95
2022-08-26T16:44:17.042Z,9.38
2022-08-26T16:46:45.620Z,9.93
2022-08-26T16:49:13.976Z,9.77
2022-08-26T16:51:42.217Z,9.93
2022-08-26T16:54:10.735Z,7.18
2022-08-26T16:56:39.867Z,8.77
2022-08-26T16:59:11.431Z,7.15
2022-08-26T17:01:41.017Z,9.32
2022-08-26T17:04:09.237Z,7.88
2022-08-26T17:06:38.236Z,8.90
2022-08-26T17:09:06.808Z,10.93
2022-08-26T17:11:35.347Z,11.05
2022-08-26T17:14:03.872Z,8.00
2022-08-26T17:16:32.507Z,10.27
2022-08-26T17:19:02.451Z,11.20
2022-08-26T17:21:30.729Z,10.80
2022-08-26T17:23:59.316Z,10.00
2022-08-26T17:26:28.052Z,8.90
2022-08-26T17:28:56.837Z,10.75
2022-08-26T17:31:25.888Z,10.73
2022-08-26T17:33:55.500Z,10.40
2022-08-26T17:36:27.713Z,8.82
2022-08-26T17:38:57.831Z,9.27
2022-08-26T17:41:26.954Z,9.75
2022-08-26T17:43:55.335Z,10.55
2022-08-26T17:46:24.338Z,8.85
2022-08-26T17:48:53.013Z,11.82
2022-08-26T17:51:22.900Z,9.85
2022-08-26T17:53:53.586Z,10.35
2022-08-26T17:56:25.635Z,12.65
2022-08-26T17:58:56.452Z,10.23
2022-08-26T18:01:28.066Z,12.52
2022-08-26T18:04:00.395Z,9.88
2022-08-26T18:06:30.243Z,9.38
2022-08-26T18:09:01.218Z,7.55
2022-08-26T18:11:31.119Z,10.23
2022-08-26T18:13:59.930Z,9.65
2022-08-26T18:16:31.835Z,9.07
2022-08-26T18:19:00.847Z,11.93
2022-08-26T18:21:29.497Z,10.30
2022-08-26T18:23:59.020Z,9.40
2022-08-26T18:26:31.051Z,11.05
2022-08-26T18:29:00.085Z,9.85
2022-08-26T18:31:29.181Z,8.32
2022-08-26T18:34:00.172Z,8.88
2022-08-26T18:36:32.351Z,8.63
2022-08-26T18:39:02.865Z,7.50
2022-08-26T18:41:33.979Z,9.57
2022-08-26T18:44:02.093Z,8.82
2022-08-26T18:46:30.328Z,7.88
2022-08-26T18:48:59.406Z,8.95
2022-08-26T18:51:30.568Z,10.90
2022-08-26T18:54:02.844Z,15.68
2022-08-26T18:56:31.619Z,11.43
2022-08-26T18:59:00.055Z,14.27
2022-08-26T19:01:30.499Z,15.68
2022-08-26T19:04:01.347Z,13.35
2022-08-26T19:06:32.895Z,14.32
2022-08-26T19:09:03.445Z,14.45
2022-08-26T19:11:37.259Z,14.45
2022-08-26T19:14:16.784Z,17.05
2022-08-26T19:16:48.710Z,15.45
2022-08-26T19:19:17.571Z,15.43
2022-08-26T19:21:46.931Z,15.68
2022-08-26T19:24:19.698Z,13.35
2022-08-26T19:26:57.771Z,16.30
2022-08-26T19:29:31.138Z,16.15
2022-08-26T19:31:59.701Z,13.27
2022-08-26T19:34:28.012Z,12.35
2022-08-26T19:36:58.246Z,12.30
2022-08-26T19:39:28.214Z,12.23
2022-08-26T19:41:56.404Z,12.50
2022-08-26T19:44:43.066Z,11.02
2022-08-26T19:47:15.747Z,13.85
2022-08-26T19:49:43.910Z,11.63
2022-08-26T19:52:12.423Z,12.32
2022-08-26T19:54:42.301Z,14.10
2022-08-26T19:57:11.095Z,14.38
2022-08-26T19:59:40.260Z,15.40
2022-08-26T20:02:11.142Z,12.73
2022-08-26T20:04:41.547Z,14.02
2022-08-26T20:07:12.957Z,15.43
2022-08-26T20:09:44.879Z,18.63
2022-08-26T20:12:13.595Z,14.00
2022-08-26T20:14:42.337Z,11.07
2022-08-26T20:17:10.572Z,11.25
2022-08-26T20:19:56.244Z,14.15
2022-08-26T20:22:24.630Z,11.80
2022-08-26T20:24:56.646Z,11.02
2022-08-26T20:27:38.010Z,12.85
2022-08-26T20:30:10.269Z,15.35
2022-08-26T20:32:39.424Z,12.85
2022-08-26T20:35:12.834Z,12.70
2022-08-26T20:37:42.136Z,12.43
2022-08-26T20:40:15.458Z,11.98
2022-08-26T20:42:43.695Z,13.48
2022-08-26T20:45:12.431Z,13.23
2022-08-26T20:47:41.706Z,11.43
2022-08-26T20:50:10.700Z,13.38
2022-08-26T20:52:38.898Z,10.95
2022-08-26T20:55:08.398Z,13.38
2022-08-26T20:57:37.883Z,12.27
2022-08-26T21:00:07.814Z,10.38
2022-08-26T21:02:37.015Z,10.80
2022-08-26T21:05:06.766Z,10.90
2022-08-26T21:07:35.663Z,9.27
2022-08-26T21:10:05.035Z,10.70
2022-08-26T21:12:33.167Z,11.20
2022-08-26T21:15:02.843Z,9.85
2022-08-26T21:17:31.314Z,9.93
2022-08-26T21:19:59.725Z,11.50
2022-08-26T21:22:28.409Z,10.02
2022-08-26T21:24:56.592Z,11.07
2022-08-26T21:27:26.328Z,9.98
2022-08-26T21:29:54.959Z,11.55
2022-08-26T21:32:24.546Z,11.40
2022-08-26T21:34:56.860Z,11.98
2022-08-26T21:37:26.784Z,10.43
2022-08-26T21:39:56.353Z,13.15
2022-08-26T21:42:26.758Z,12.93
2022-08-26T21:44:55.187Z,12.55
2022-08-26T21:47:25.409Z,12.95
2022-08-26T21:49:54.339Z,10.82
2022-08-26T21:52:22.530Z,13.70
2022-08-26T21:54:50.737Z,13.43
2022-08-26T21:57:19.450Z,13.57
2022-08-26T21:59:47.546Z,12.43
2022-08-26T22:02:15.836Z,12.20
2022-08-26T22:04:48.739Z,12.52
2022-08-26T22:07:19.078Z,11.70
2022-08-26T22:09:47.700Z,12.00
2022-08-26T22:12:18.064Z,11.95
2022-08-26T22:14:47.017Z,10.93
2022-08-26T22:17:15.912Z,12.45
2022-08-26T22:19:45.904Z,12.43
2022-08-26T22:22:14.950Z,13.20
2022-08-26T22:24:44.128Z,14.25
2022-08-26T22:27:12.986Z,11.73
2022-08-26T22:29:41.292Z,10.75
2022-08-26T22:32:09.618Z,12.00
2022-08-26T22:34:37.870Z,13.35
2022-08-26T22:37:07.498Z,12.68
2022-08-26T22:39:35.611Z,12.25
2022-08-26T22:42:04.406Z,13.05
2022-08-26T22:44:36.349Z,11.93
2022-08-26T22:47:04.650Z,12.23
2022-08-26T22:49:32.797Z,12.45
2022-08-26T22:52:00.950Z,11.68
2022-08-26T22:54:30.460Z,12.52
2022-08-26T22:56:58.882Z,11.52
2022-08-26T22:59:27.020Z,11.18
2022-08-26T23:01:55.179Z,11.75
2022-08-26T23:04:23.326Z,11.38
2022-08-26T23:06:51.472Z,12.95
2022-08-26T23:09:20.528Z,12.07
2022-08-26T23:11:51.339Z,13.02
2022-08-26T23:14:20.223Z,13.45
2022-08-26T23:16:48.728Z,11.73
2022-08-26T23:19:19.888Z,11.77
2022-08-26T23:21:49.413Z,11.13
2022-08-26T23:24:18.898Z,11.88
2022-08-26T23:26:47.726Z,11.70
2022-08-26T23:29:17.413Z,11.80
2022-08-26T23:31:45.748Z,14.35
2022-08-26T23:34:31.672Z,11.20
2022-08-26T23:37:00.992Z,13.13
2022-08-26T23:39:29.701Z,11.50
2022-08-26T23:41:58.155Z,12.25
2022-08-26T23:44:28.495Z,13.82
2022-08-26T23:46:56.897Z,11.68
2022-08-26T23:49:26.397Z,12.43
2022-08-26T23:52:12.835Z,11.75
2022-08-26T23:54:41.573Z,13.93
2022-08-26T23:57:10.882Z,12.55
2022-08-26T23:59:40.750Z,13.02
